Warning: Javascript must be enabled to use all the features on this page!


Page Loading - Please Wait...

Click to hideNews Bulletins

Peak Streamflow for the Nation

USGS 07349000 Bayou Dorcheat near Minden, LA

Webster Parish, Louisiana
Hydrologic Unit Code 11140203
Latitude  32°35'50.8", Longitude  93°19'54.7" NAD27
Drainage area 1,097.00  square miles
Gage datum 133.75 feet above NGVD29
Output formats
Table
Graph
Tab-separated file
peakfq (watstore) format
Reselect output format
Water
Year
Date Gage
Height
(feet)
Stream-
flow
(cfs)
1929 1929-04-29 12.50 2,910
1930 1930-05-21 22.95 40,000
1931 1931-01-12 11.46 2,640
1933 1933-07-26 21.12 25,000
1936 1936-05-15 9.10 878
1937 1937-01-26 18.70 14,500
1938 1937-12-31 20.50 22,300
1939 1939-02-05 18.80 14,300
1940 1940-07-08 17.04 8,750
1941 1941-05-08 19.63 17,000
1942 1942-05-01 18.47 12,900
1943 1943-04-27 12.76 3,830
1944 1944-05-07 20.36 20,800
1945 1945-03-05 20.84 21,600
1946 1946-01-12 18.85 14,5001
1947 1947-03-16 15.38 6,220
1948 1948-02-17 17.13 9,180
1949 1949-01-31 17.44 9,110
1950 1950-01-18 19.85 15,900
1951 1951-02-24 13.79 4,120
1952 1952-01-30 15.40 5,700
1953 1953-05-18 20.78 16,900
1954 1954-05-17 11.67 3,020
1955 1955-03-25 15.64 5,940
1956 1956-02-16 12.48 2,810
1957 1957-05-02 22.12 23,100
1958 1958-05-01 24.90 44,800
1959 1959-02-21 15.08 5,470
1960 1960-03-07 16.36 7,220
1961 1961-04-06 15.40 6,060
1962 1961-12-19 18.71 11,900
1963 1963-07-21 13.31 3,950
1964 1964-04-29 19.54 14,900
1965 1965-02-17 17.02 8,080
1966 1966-05-05 19.90 16,600
1967 1967-06-05 10.19 1,720
1968 1968-05-24 16.05 6,740
1969 1969-03-25 17.73 9,360
1970 1970-05-05 17.34 8,630
1971 1971-05-20 11.31 2,400
1972 1972-01-12 12.59 3,650
1973 1973-04-29 20.96 19,000
1974 1974-06-12 23.31 27,300
1975 1975-02-06 22.35 22,500
1976 1976-03-14 17.85 9,500
1977 1977-04-07 12.52 3,340
1978 1978-05-13 12.04 2,980
1979 1979-05-06 18.41 10,700
1980 1980-04-19 16.58 7,390
1981 1981-05-24 14.30 4,900
1982 1982-06-27 10.53 2,000
1983 1983-01-01 18.93 12,000
1984 1984-03-08 15.55 6,200
1985 1984-10-29 16.52 7,310
1986 1985-12-20 14.50 5,100
1987 1987-03-03 17.18 8,220
1988 1988-01-01 21.62 19,400
1989 1989-07-05 19.27 12,800
1990 1990-03-12 22.38 22,600
1991 1991-04-16 23.49 28,200
1992 1992-03-14 18.12 10,000
1994 1994-03-05 14.12 4,720
1995 1995-03-11 16.01 6,710
1996 1996-06-18 16.00 6,700
1997 1997-04-08 25.12 38,200
1998 1998-02-18 15.93 6,620
1999 1999-01-31 21.02 17,500
2000 2000-05-27 14.28 4,880
2001 2001-03-04 22.19 25,400
2002 2001-12-21 19.49 14,500
2003 2003-02-25 17.40 8,630
2004 2004-03-06 18.06 9,930
2005 2005-01-16 15.35 5,980
2006 2006-03-24 15.66 6,320
2007 2007-01-19 18.13 10,100
2008 2008-02-22 12.24 3,130
2009 2009-05-10 17.38 8,590
2010 2009-11-01 24.05 28,300
2011 2011-05-03 7.04 3404
2012 2012-03-25 16.92 7,840
2013 2013-04-15 9.82 1,590
2014 2013-12-27 16.22 6,960
2015 2015-03-16 20.56 14,400
2016 2016-03-11 25.95 37,200
2017 2017-04-18 14.45 5,050
2018 2018-03-01 20.65 16,300
2019 2019-04-11 20.46 15,800
2020 2020-02-17 17.32 8,490
2021 2021-03-04 22.30 22,300
?
  Peak Streamflow Qualification Codes.